sensor_id;sensor_type;location;lat;lon;timestamp;pressure;altitude;pressure_sealevel;temperature;humidity
10079;BME280;5078;42.544;22.966;2022-12-18T00:01:51;94583.22;;;6.23;100.00
10079;BME280;5078;42.544;22.966;2022-12-18T00:04:23;94577.53;;;6.18;100.00
10079;BME280;5078;42.544;22.966;2022-12-18T00:06:51;94594.19;;;6.29;100.00
10079;BME280;5078;42.544;22.966;2022-12-18T00:09:18;94587.34;;;6.16;100.00
10079;BME280;5078;42.544;22.966;2022-12-18T00:11:45;94594.56;;;6.14;100.00
10079;BME280;5078;42.544;22.966;2022-12-18T00:14:13;94595.66;;;6.12;100.00
10079;BME280;5078;42.544;22.966;2022-12-18T00:16:43;94598.47;;;5.99;100.00
10079;BME280;5078;42.544;22.966;2022-12-18T00:19:10;94605.53;;;5.98;100.00
10079;BME280;5078;42.544;22.966;2022-12-18T00:21:37;94607.13;;;5.90;100.00
10079;BME280;5078;42.544;22.966;2022-12-18T00:24:05;94605.31;;;5.90;100.00
10079;BME280;5078;42.544;22.966;2022-12-18T00:26:33;94612.31;;;5.80;100.00
10079;BME280;5078;42.544;22.966;2022-12-18T00:29:01;94615.53;;;5.83;100.00
10079;BME280;5078;42.544;22.966;2022-12-18T00:31:29;94623.69;;;5.80;100.00
10079;BME280;5078;42.544;22.966;2022-12-18T00:33:57;94626.84;;;5.74;100.00
10079;BME280;5078;42.544;22.966;2022-12-18T00:36:25;94629.03;;;5.69;100.00
10079;BME280;5078;42.544;22.966;2022-12-18T00:38:53;94611.63;;;5.57;100.00
10079;BME280;5078;42.544;22.966;2022-12-18T00:41:20;94620.53;;;5.66;100.00
10079;BME280;5078;42.544;22.966;2022-12-18T00:44:01;94624.13;;;5.65;100.00
10079;BME280;5078;42.544;22.966;2022-12-18T00:46:29;94612.38;;;5.48;100.00
10079;BME280;5078;42.544;22.966;2022-12-18T00:48:56;94637.38;;;5.74;100.00
10079;BME280;5078;42.544;22.966;2022-12-18T00:51:23;94641.00;;;5.83;100.00
10079;BME280;5078;42.544;22.966;2022-12-18T00:53:50;94639.53;;;5.69;100.00
10079;BME280;5078;42.544;22.966;2022-12-18T00:56:17;94639.53;;;5.69;100.00
10079;BME280;5078;42.544;22.966;2022-12-18T00:58:43;94638.13;;;5.65;100.00
10079;BME280;5078;42.544;22.966;2022-12-18T01:01:10;94632.13;;;5.63;100.00
10079;BME280;5078;42.544;22.966;2022-12-18T01:03:38;94639.91;;;5.65;100.00
10079;BME280;5078;42.544;22.966;2022-12-18T01:06:06;94639.41;;;5.71;100.00
10079;BME280;5078;42.544;22.966;2022-12-18T01:08:34;94624.59;;;5.37;100.00
10079;BME280;5078;42.544;22.966;2022-12-18T01:11:01;94644.19;;;5.45;100.00
10079;BME280;5078;42.544;22.966;2022-12-18T01:13:33;94639.16;;;5.41;100.00
10079;BME280;5078;42.544;22.966;2022-12-18T01:15:59;94639.16;;;5.41;100.00
10079;BME280;5078;42.544;22.966;2022-12-18T01:18:26;94639.13;;;5.53;100.00
10079;BME280;5078;42.544;22.966;2022-12-18T01:20:54;94646.50;;;5.59;100.00
10079;BME280;5078;42.544;22.966;2022-12-18T01:23:21;94646.44;;;5.49;100.00
10079;BME280;5078;42.544;22.966;2022-12-18T01:25:48;94648.00;;;5.52;100.00
10079;BME280;5078;42.544;22.966;2022-12-18T01:28:14;94650.09;;;5.58;100.00
10079;BME280;5078;42.544;22.966;2022-12-18T01:30:41;94647.09;;;5.62;100.00
10079;BME280;5078;42.544;22.966;2022-12-18T01:33:08;94654.16;;;5.62;100.00
10079;BME280;5078;42.544;22.966;2022-12-18T01:35:40;94647.44;;;5.69;100.00
10079;BME280;5078;42.544;22.966;2022-12-18T01:38:08;94651.63;;;5.39;100.00
10079;BME280;5078;42.544;22.966;2022-12-18T01:40:35;94648.97;;;5.39;100.00
10079;BME280;5078;42.544;22.966;2022-12-18T01:43:02;94646.66;;;5.46;100.00
10079;BME280;5078;42.544;22.966;2022-12-18T01:45:30;94652.59;;;5.27;100.00
10079;BME280;5078;42.544;22.966;2022-12-18T01:47:59;94654.34;;;5.38;100.00
10079;BME280;5078;42.544;22.966;2022-12-18T01:50:30;94651.63;;;5.28;100.00
10079;BME280;5078;42.544;22.966;2022-12-18T01:53:00;94668.78;;;5.44;100.00
10079;BME280;5078;42.544;22.966;2022-12-18T01:55:32;94629.00;;;5.05;100.00
10079;BME280;5078;42.544;22.966;2022-12-18T01:58:01;94663.59;;;5.32;100.00
10079;BME280;5078;42.544;22.966;2022-12-18T02:00:28;94669.56;;;5.34;100.00
10079;BME280;5078;42.544;22.966;2022-12-18T02:02:55;94665.78;;;5.48;100.00
10079;BME280;5078;42.544;22.966;2022-12-18T02:05:29;94661.25;;;5.50;100.00
10079;BME280;5078;42.544;22.966;2022-12-18T02:08:05;94664.53;;;5.31;100.00
10079;BME280;5078;42.544;22.966;2022-12-18T02:10:41;94650.56;;;5.31;100.00
10079;BME280;5078;42.544;22.966;2022-12-18T02:13:13;94669.38;;;5.15;100.00
10079;BME280;5078;42.544;22.966;2022-12-18T02:15:45;94668.03;;;5.21;100.00
10079;BME280;5078;42.544;22.966;2022-12-18T02:18:18;94665.50;;;5.19;100.00
10079;BME280;5078;42.544;22.966;2022-12-18T02:20:47;94681.78;;;5.24;100.00
10079;BME280;5078;42.544;22.966;2022-12-18T02:23:24;94681.06;;;5.22;100.00
10079;BME280;5078;42.544;22.966;2022-12-18T02:26:09;94683.44;;;5.14;100.00
10079;BME280;5078;42.544;22.966;2022-12-18T02:28:42;94678.91;;;5.16;100.00
10079;BME280;5078;42.544;22.966;2022-12-18T02:31:14;94678.94;;;5.05;100.00
10079;BME280;5078;42.544;22.966;2022-12-18T02:33:43;94676.19;;;5.06;100.00
10079;BME280;5078;42.544;22.966;2022-12-18T02:36:12;94689.56;;;5.14;100.00
10079;BME280;5078;42.544;22.966;2022-12-18T02:38:41;94682.72;;;5.23;100.00
10079;BME280;5078;42.544;22.966;2022-12-18T02:41:10;94680.44;;;5.30;100.00
10079;BME280;5078;42.544;22.966;2022-12-18T02:43:37;94678.91;;;5.27;100.00
10079;BME280;5078;42.544;22.966;2022-12-18T02:46:26;94693.97;;;5.14;100.00
10079;BME280;5078;42.544;22.966;2022-12-18T02:48:57;94698.38;;;5.25;100.00
10079;BME280;5078;42.544;22.966;2022-12-18T02:51:31;94699.47;;;5.22;100.00
10079;BME280;5078;42.544;22.966;2022-12-18T02:54:04;94691.25;;;5.04;100.00
10079;BME280;5078;42.544;22.966;2022-12-18T02:56:38;94696.84;;;5.11;100.00
10079;BME280;5078;42.544;22.966;2022-12-18T02:59:12;94694.22;;;5.11;100.00
10079;BME280;5078;42.544;22.966;2022-12-18T03:01:45;94699.09;;;5.15;100.00
10079;BME280;5078;42.544;22.966;2022-12-18T03:04:19;94710.34;;;5.17;100.00
10079;BME280;5078;42.544;22.966;2022-12-18T03:06:50;94713.59;;;5.10;100.00
10079;BME280;5078;42.544;22.966;2022-12-18T03:09:21;94716.47;;;4.95;100.00
10079;BME280;5078;42.544;22.966;2022-12-18T03:11:55;94722.19;;;5.01;100.00
10079;BME280;5078;42.544;22.966;2022-12-18T03:14:41;94720.75;;;4.96;100.00
10079;BME280;5078;42.544;22.966;2022-12-18T03:17:11;94720.53;;;5.00;100.00
10079;BME280;5078;42.544;22.966;2022-12-18T03:19:40;94715.63;;;4.84;100.00
10079;BME280;5078;42.544;22.966;2022-12-18T03:22:09;94724.69;;;4.91;100.00
10079;BME280;5078;42.544;22.966;2022-12-18T03:24:37;94725.53;;;4.80;100.00
10079;BME280;5078;42.544;22.966;2022-12-18T03:27:09;94722.66;;;4.83;100.00
10079;BME280;5078;42.544;22.966;2022-12-18T03:29:42;94722.22;;;4.89;100.00
10079;BME280;5078;42.544;22.966;2022-12-18T03:32:12;94720.16;;;5.04;100.00
10079;BME280;5078;42.544;22.966;2022-12-18T03:34:43;94733.66;;;4.88;100.00
10079;BME280;5078;42.544;22.966;2022-12-18T03:37:13;94739.84;;;4.98;100.00
10079;BME280;5078;42.544;22.966;2022-12-18T03:39:40;94741.75;;;4.96;100.00
10079;BME280;5078;42.544;22.966;2022-12-18T03:42:11;94758.00;;;5.02;100.00
10079;BME280;5078;42.544;22.966;2022-12-18T03:44:44;94750.38;;;4.87;100.00
10079;BME280;5078;42.544;22.966;2022-12-18T03:47:17;94762.09;;;4.94;100.00
10079;BME280;5078;42.544;22.966;2022-12-18T03:49:52;94754.09;;;4.85;100.00
10079;BME280;5078;42.544;22.966;2022-12-18T03:52:26;94766.88;;;4.89;100.00
10079;BME280;5078;42.544;22.966;2022-12-18T03:54:55;94766.16;;;4.87;100.00
10079;BME280;5078;42.544;22.966;2022-12-18T03:57:26;94771.88;;;4.81;100.00
10079;BME280;5078;42.544;22.966;2022-12-18T03:59:56;94765.44;;;4.85;100.00
10079;BME280;5078;42.544;22.966;2022-12-18T04:02:24;94773.66;;;4.81;100.00
10079;BME280;5078;42.544;22.966;2022-12-18T04:04:52;94771.53;;;4.74;100.00
10079;BME280;5078;42.544;22.966;2022-12-18T04:07:22;94781.31;;;4.72;100.00
10079;BME280;5078;42.544;22.966;2022-12-18T04:09:52;94778.53;;;4.63;100.00
10079;BME280;5078;42.544;22.966;2022-12-18T04:12:20;94792.13;;;4.45;100.00
10079;BME280;5078;42.544;22.966;2022-12-18T04:14:48;94794.50;;;4.48;100.00
10079;BME280;5078;42.544;22.966;2022-12-18T04:17:15;94788.75;;;4.43;100.00
10079;BME280;5078;42.544;22.966;2022-12-18T04:19:41;94792.56;;;4.39;100.00
10079;BME280;5078;42.544;22.966;2022-12-18T04:22:09;94796.97;;;4.39;100.00
10079;BME280;5078;42.544;22.966;2022-12-18T04:24:36;94802.84;;;4.42;100.00
10079;BME280;5078;42.544;22.966;2022-12-18T04:27:03;94798.34;;;4.44;100.00
10079;BME280;5078;42.544;22.966;2022-12-18T04:29:30;94802.72;;;4.32;100.00
10079;BME280;5078;42.544;22.966;2022-12-18T04:31:58;94810.50;;;4.45;100.00
10079;BME280;5078;42.544;22.966;2022-12-18T04:34:25;94802.84;;;4.42;100.00
10079;BME280;5078;42.544;22.966;2022-12-18T04:36:52;94815.06;;;4.54;100.00
10079;BME280;5078;42.544;22.966;2022-12-18T04:39:18;94810.31;;;4.60;100.00
10079;BME280;5078;42.544;22.966;2022-12-18T04:41:45;94815.28;;;4.51;100.00
10079;BME280;5078;42.544;22.966;2022-12-18T04:44:13;94815.13;;;4.42;100.00
10079;BME280;5078;42.544;22.966;2022-12-18T04:46:39;94828.88;;;4.45;100.00
10079;BME280;5078;42.544;22.966;2022-12-18T04:49:07;94824.59;;;4.44;100.00
10079;BME280;5078;42.544;22.966;2022-12-18T04:51:35;94832.34;;;4.46;100.00
10079;BME280;5078;42.544;22.966;2022-12-18T04:54:02;94838.66;;;4.43;100.00
10079;BME280;5078;42.544;22.966;2022-12-18T04:56:31;94838.69;;;4.54;100.00
10079;BME280;5078;42.544;22.966;2022-12-18T04:58:58;94850.63;;;4.59;100.00
10079;BME280;5078;42.544;22.966;2022-12-18T05:01:24;94854.41;;;4.43;100.00
10079;BME280;5078;42.544;22.966;2022-12-18T05:03:51;94858.00;;;4.53;100.00
10079;BME280;5078;42.544;22.966;2022-12-18T05:06:19;94857.09;;;4.66;100.00
10079;BME280;5078;42.544;22.966;2022-12-18T05:08:46;94868.91;;;4.60;100.00
10079;BME280;5078;42.544;22.966;2022-12-18T05:11:14;94867.16;;;4.72;100.00
10079;BME280;5078;42.544;22.966;2022-12-18T05:13:42;94875.16;;;4.70;100.00
10079;BME280;5078;42.544;22.966;2022-12-18T05:16:09;94870.41;;;4.51;100.00
10079;BME280;5078;42.544;22.966;2022-12-18T05:18:36;94869.16;;;4.57;100.00
10079;BME280;5078;42.544;22.966;2022-12-18T05:21:04;94869.50;;;4.64;100.00
10079;BME280;5078;42.544;22.966;2022-12-18T05:23:34;94871.63;;;4.59;100.00
10079;BME280;5078;42.544;22.966;2022-12-18T05:26:06;94880.41;;;4.82;100.00
10079;BME280;5078;42.544;22.966;2022-12-18T05:28:34;94872.53;;;4.82;100.00
10079;BME280;5078;42.544;22.966;2022-12-18T05:31:04;94886.66;;;4.57;100.00
10079;BME280;5078;42.544;22.966;2022-12-18T05:33:33;94897.16;;;4.45;100.00
10079;BME280;5078;42.544;22.966;2022-12-18T05:36:04;94898.13;;;4.56;100.00
10079;BME280;5078;42.544;22.966;2022-12-18T05:38:34;94898.44;;;4.75;100.00
10079;BME280;5078;42.544;22.966;2022-12-18T05:41:02;94893.34;;;4.85;100.00
10079;BME280;5078;42.544;22.966;2022-12-18T05:43:29;94899.03;;;4.79;100.00
10079;BME280;5078;42.544;22.966;2022-12-18T05:45:56;94910.84;;;4.73;100.00
10079;BME280;5078;42.544;22.966;2022-12-18T05:48:23;94919.91;;;4.69;100.00
10079;BME280;5078;42.544;22.966;2022-12-18T05:50:50;94906.59;;;4.48;100.00
10079;BME280;5078;42.544;22.966;2022-12-18T05:53:19;94895.50;;;4.56;100.00
10079;BME280;5078;42.544;22.966;2022-12-18T05:55:47;94922.91;;;4.64;100.00
10079;BME280;5078;42.544;22.966;2022-12-18T05:58:14;94927.25;;;4.28;100.00
10079;BME280;5078;42.544;22.966;2022-12-18T06:00:43;94926.84;;;4.22;100.00
10079;BME280;5078;42.544;22.966;2022-12-18T06:03:12;94930.53;;;4.19;100.00
10079;BME280;5078;42.544;22.966;2022-12-18T06:05:41;94941.72;;;4.34;100.00
10079;BME280;5078;42.544;22.966;2022-12-18T06:08:08;94952.03;;;4.37;100.00
10079;BME280;5078;42.544;22.966;2022-12-18T06:10:36;94953.97;;;4.22;100.00
10079;BME280;5078;42.544;22.966;2022-12-18T06:13:04;94969.66;;;3.98;100.00
10079;BME280;5078;42.544;22.966;2022-12-18T06:15:31;94952.78;;;3.89;100.00
10079;BME280;5078;42.544;22.966;2022-12-18T06:18:00;94946.97;;;3.60;100.00
10079;BME280;5078;42.544;22.966;2022-12-18T06:20:27;94947.06;;;3.59;100.00
10079;BME280;5078;42.544;22.966;2022-12-18T06:22:56;94951.88;;;3.78;100.00
10079;BME280;5078;42.544;22.966;2022-12-18T06:25:23;94950.41;;;3.74;100.00
10079;BME280;5078;42.544;22.966;2022-12-18T06:27:50;94955.63;;;3.86;100.00
10079;BME280;5078;42.544;22.966;2022-12-18T06:30:18;94955.63;;;3.86;100.00
10079;BME280;5078;42.544;22.966;2022-12-18T06:32:45;94952.28;;;3.84;100.00
10079;BME280;5078;42.544;22.966;2022-12-18T06:35:12;94960.25;;;3.83;100.00
10079;BME280;5078;42.544;22.966;2022-12-18T06:37:38;94968.84;;;3.85;100.00
10079;BME280;5078;42.544;22.966;2022-12-18T06:40:07;94970.00;;;3.81;100.00
10079;BME280;5078;42.544;22.966;2022-12-18T06:42:34;94974.09;;;3.85;100.00
10079;BME280;5078;42.544;22.966;2022-12-18T06:45:01;94971.91;;;3.79;100.00
10079;BME280;5078;42.544;22.966;2022-12-18T06:47:29;94971.56;;;3.83;100.00
10079;BME280;5078;42.544;22.966;2022-12-18T06:49:56;94977.84;;;3.94;100.00
10079;BME280;5078;42.544;22.966;2022-12-18T06:52:22;94987.50;;;3.93;100.00
10079;BME280;5078;42.544;22.966;2022-12-18T06:54:49;94994.56;;;3.93;100.00
10079;BME280;5078;42.544;22.966;2022-12-18T06:57:16;94990.44;;;4.01;100.00
10079;BME280;5078;42.544;22.966;2022-12-18T06:59:43;94987.63;;;4.04;100.00
10079;BME280;5078;42.544;22.966;2022-12-18T07:02:11;94994.34;;;3.96;100.00
10079;BME280;5078;42.544;22.966;2022-12-18T07:04:39;95003.78;;;3.98;100.00
10079;BME280;5078;42.544;22.966;2022-12-18T07:07:06;94997.06;;;3.81;100.00
10079;BME280;5078;42.544;22.966;2022-12-18T07:09:33;95009.00;;;3.98;100.00
10079;BME280;5078;42.544;22.966;2022-12-18T07:12:00;95017.63;;;4.00;100.00
10079;BME280;5078;42.544;22.966;2022-12-18T07:14:27;95009.00;;;3.98;100.00
10079;BME280;5078;42.544;22.966;2022-12-18T07:16:54;95006.50;;;3.97;100.00
10079;BME280;5078;42.544;22.966;2022-12-18T07:19:21;95014.25;;;3.98;100.00
10079;BME280;5078;42.544;22.966;2022-12-18T07:21:49;95018.88;;;4.07;100.00
10079;BME280;5078;42.544;22.966;2022-12-18T07:24:16;95030.13;;;4.09;100.00
10079;BME280;5078;42.544;22.966;2022-12-18T07:26:45;95024.13;;;4.07;100.00
10079;BME280;5078;42.544;22.966;2022-12-18T07:29:15;95016.53;;;4.16;100.00
10079;BME280;5078;42.544;22.966;2022-12-18T07:31:42;95024.94;;;4.21;100.00
10079;BME280;5078;42.544;22.966;2022-12-18T07:34:10;95031.13;;;4.20;100.00
10079;BME280;5078;42.544;22.966;2022-12-18T07:36:41;95032.38;;;4.27;100.00
10079;BME280;5078;42.544;22.966;2022-12-18T07:39:12;95031.56;;;4.14;100.00
10079;BME280;5078;42.544;22.966;2022-12-18T07:41:38;95016.97;;;3.97;100.00
10079;BME280;5078;42.544;22.966;2022-12-18T07:44:09;95031.56;;;4.14;100.00
10079;BME280;5078;42.544;22.966;2022-12-18T07:46:36;95027.56;;;4.21;100.00
10079;BME280;5078;42.544;22.966;2022-12-18T07:49:03;95037.53;;;4.16;100.00
10079;BME280;5078;42.544;22.966;2022-12-18T07:51:30;95001.78;;;3.89;100.00
10079;BME280;5078;42.544;22.966;2022-12-18T07:53:58;95026.00;;;4.18;100.00
10079;BME280;5078;42.544;22.966;2022-12-18T07:56:28;95038.44;;;4.40;100.00
10079;BME280;5078;42.544;22.966;2022-12-18T07:58:55;95047.09;;;4.29;100.00
10079;BME280;5078;42.544;22.966;2022-12-18T08:01:22;95051.97;;;4.34;100.00
10079;BME280;5078;42.544;22.966;2022-12-18T08:03:54;95047.22;;;4.15;100.00
10079;BME280;5078;42.544;22.966;2022-12-18T08:06:21;95073.16;;;4.07;100.00
10079;BME280;5078;42.544;22.966;2022-12-18T08:08:47;95072.41;;;4.18;100.00
10079;BME280;5078;42.544;22.966;2022-12-18T08:11:14;95070.50;;;4.20;100.00
10079;BME280;5078;42.544;22.966;2022-12-18T08:13:44;95072.81;;;4.24;100.00
10079;BME280;5078;42.544;22.966;2022-12-18T08:16:11;95080.06;;;4.21;100.00
10079;BME280;5078;42.544;22.966;2022-12-18T08:18:38;95086.03;;;4.23;100.00
10079;BME280;5078;42.544;22.966;2022-12-18T08:21:08;95088.03;;;4.06;100.00
10079;BME280;5078;42.544;22.966;2022-12-18T08:23:35;95095.59;;;4.24;100.00
10079;BME280;5078;42.544;22.966;2022-12-18T08:26:02;95096.09;;;4.29;100.00
10079;BME280;5078;42.544;22.966;2022-12-18T08:28:35;95100.75;;;4.25;100.00
10079;BME280;5078;42.544;22.966;2022-12-18T08:31:08;95101.31;;;4.42;100.00
10079;BME280;5078;42.544;22.966;2022-12-18T08:33:38;95105.84;;;4.52;100.00
10079;BME280;5078;42.544;22.966;2022-12-18T08:36:05;95086.63;;;4.39;100.00
10079;BME280;5078;42.544;22.966;2022-12-18T08:38:34;95104.59;;;4.45;100.00
10079;BME280;5078;42.544;22.966;2022-12-18T08:41:01;95088.84;;;4.45;100.00
10079;BME280;5078;42.544;22.966;2022-12-18T08:43:29;95091.88;;;4.52;100.00
10079;BME280;5078;42.544;22.966;2022-12-18T08:46:15;95094.69;;;4.49;100.00
10079;BME280;5078;42.544;22.966;2022-12-18T08:48:46;95096.72;;;4.45;100.00
10079;BME280;5078;42.544;22.966;2022-12-18T08:51:15;95098.56;;;4.56;100.00
10079;BME280;5078;42.544;22.966;2022-12-18T08:53:42;95104.59;;;4.45;100.00
10079;BME280;5078;42.544;22.966;2022-12-18T08:56:10;95096.53;;;4.36;100.00
10079;BME280;5078;42.544;22.966;2022-12-18T08:58:37;95106.78;;;4.51;100.00
10079;BME280;5078;42.544;22.966;2022-12-18T09:01:05;95102.38;;;4.39;100.00
10079;BME280;5078;42.544;22.966;2022-12-18T09:03:34;95104.88;;;4.53;100.00
10079;BME280;5078;42.544;22.966;2022-12-18T09:06:00;95099.13;;;4.48;100.00
10079;BME280;5078;42.544;22.966;2022-12-18T09:08:35;95102.69;;;4.47;100.00
10079;BME280;5078;42.544;22.966;2022-12-18T09:11:02;95105.09;;;4.50;100.00
10079;BME280;5078;42.544;22.966;2022-12-18T09:13:29;95108.78;;;4.48;100.00
10079;BME280;5078;42.544;22.966;2022-12-18T09:15:56;95102.25;;;4.53;100.00
10079;BME280;5078;42.544;22.966;2022-12-18T09:18:23;95099.81;;;4.63;100.00
10079;BME280;5078;42.544;22.966;2022-12-18T09:20:54;95103.97;;;4.79;100.00
10079;BME280;5078;42.544;22.966;2022-12-18T09:23:23;95106.50;;;4.80;100.00
10079;BME280;5078;42.544;22.966;2022-12-18T09:25:58;95107.94;;;4.97;100.00
10079;BME280;5078;42.544;22.966;2022-12-18T09:28:26;95112.16;;;4.87;100.00
10079;BME280;5078;42.544;22.966;2022-12-18T09:30:53;95112.78;;;4.90;100.00
10079;BME280;5078;42.544;22.966;2022-12-18T09:33:23;95101.81;;;4.96;100.00
10079;BME280;5078;42.544;22.966;2022-12-18T09:35:50;95106.34;;;4.94;100.00
10079;BME280;5078;42.544;22.966;2022-12-18T09:38:19;95101.16;;;5.06;100.00
10079;BME280;5078;42.544;22.966;2022-12-18T09:40:51;95096.16;;;5.14;100.00
10079;BME280;5078;42.544;22.966;2022-12-18T09:43:19;95098.41;;;5.07;100.00
10079;BME280;5078;42.544;22.966;2022-12-18T09:45:50;95099.25;;;5.08;100.00
10079;BME280;5078;42.544;22.966;2022-12-18T09:48:24;95097.50;;;4.95;100.00
10079;BME280;5078;42.544;22.966;2022-12-18T09:51:15;95093.41;;;5.04;100.00
10079;BME280;5078;42.544;22.966;2022-12-18T09:53:53;95092.53;;;5.04;100.00
10079;BME280;5078;42.544;22.966;2022-12-18T09:56:22;95089.16;;;5.02;100.00
10079;BME280;5078;42.544;22.966;2022-12-18T09:58:55;95084.53;;;5.29;100.00
10079;BME280;5078;42.544;22.966;2022-12-18T10:01:24;95068.38;;;4.98;100.00
10079;BME280;5078;42.544;22.966;2022-12-18T10:04:05;95095.56;;;5.34;100.00
10079;BME280;5078;42.544;22.966;2022-12-18T10:06:39;95071.41;;;5.29;100.00
10079;BME280;5078;42.544;22.966;2022-12-18T10:09:23;95079.53;;;5.37;100.00
10079;BME280;5078;42.544;22.966;2022-12-18T10:12:00;95079.31;;;5.16;100.00
10079;BME280;5078;42.544;22.966;2022-12-18T10:14:35;95085.94;;;5.22;100.00
10079;BME280;5078;42.544;22.966;2022-12-18T10:17:11;95084.53;;;5.29;100.00
10079;BME280;5078;42.544;22.966;2022-12-18T10:19:45;95077.72;;;5.27;100.00
10079;BME280;5078;42.544;22.966;2022-12-18T10:22:33;95086.47;;;5.38;100.00
10079;BME280;5078;42.544;22.966;2022-12-18T10:25:12;95079.88;;;5.33;100.00
10079;BME280;5078;42.544;22.966;2022-12-18T10:27:43;95072.53;;;5.49;100.00
10079;BME280;5078;42.544;22.966;2022-12-18T10:30:18;95064.59;;;5.38;100.00
10079;BME280;5078;42.544;22.966;2022-12-18T10:32:45;95074.88;;;5.41;100.00
10079;BME280;5078;42.544;22.966;2022-12-18T10:35:18;95039.06;;;5.16;100.00
10079;BME280;5078;42.544;22.966;2022-12-18T10:38:03;95063.09;;;5.47;100.00
10079;BME280;5078;42.544;22.966;2022-12-18T10:40:33;95065.59;;;5.48;100.00
10079;BME280;5078;42.544;22.966;2022-12-18T10:43:14;95065.97;;;5.66;100.00
10079;BME280;5078;42.544;22.966;2022-12-18T10:45:42;95063.03;;;5.93;100.00
10079;BME280;5078;42.544;22.966;2022-12-18T10:48:18;95053.00;;;5.87;100.00
10079;BME280;5078;42.544;22.966;2022-12-18T10:50:48;95059.69;;;5.80;100.00
10079;BME280;5078;42.544;22.966;2022-12-18T10:53:19;95058.13;;;5.77;100.00
10079;BME280;5078;42.544;22.966;2022-12-18T10:55:52;95059.44;;;5.72;100.00
10079;BME280;5078;42.544;22.966;2022-12-18T10:58:24;95047.78;;;5.52;100.00
10079;BME280;5078;42.544;22.966;2022-12-18T11:01:08;95060.72;;;5.55;100.00
10079;BME280;5078;42.544;22.966;2022-12-18T11:03:36;95070.44;;;5.30;100.00
10079;BME280;5078;42.544;22.966;2022-12-18T11:06:08;95067.09;;;5.04;100.00
10079;BME280;5078;42.544;22.966;2022-12-18T11:08:36;95057.63;;;5.02;100.00
10079;BME280;5078;42.544;22.966;2022-12-18T11:11:19;95080.38;;;5.14;100.00
10079;BME280;5078;42.544;22.966;2022-12-18T11:13:58;95075.19;;;5.25;100.00
10079;BME280;5078;42.544;22.966;2022-12-18T11:16:32;95075.28;;;5.24;100.00
10079;BME280;5078;42.544;22.966;2022-12-18T11:19:24;95078.88;;;5.23;100.00
10079;BME280;5078;42.544;22.966;2022-12-18T11:21:52;95088.06;;;5.17;100.00
10079;BME280;5078;42.544;22.966;2022-12-18T11:24:26;95082.91;;;4.91;100.00
10079;BME280;5078;42.544;22.966;2022-12-18T11:27:05;95078.38;;;4.93;100.00
10079;BME280;5078;42.544;22.966;2022-12-18T11:30:08;95090.69;;;4.93;100.00
10079;BME280;5078;42.544;22.966;2022-12-18T11:32:37;95096.78;;;4.93;100.00
10079;BME280;5078;42.544;22.966;2022-12-18T11:35:15;95091.53;;;4.93;100.00
10079;BME280;5078;42.544;22.966;2022-12-18T11:37:49;95096.84;;;5.05;100.00
10079;BME280;5078;42.544;22.966;2022-12-18T11:40:30;95104.69;;;5.17;100.00
10079;BME280;5078;42.544;22.966;2022-12-18T11:43:08;95112.91;;;5.13;100.00
10079;BME280;5078;42.544;22.966;2022-12-18T11:45:45;95101.34;;;4.79;100.00
10079;BME280;5078;42.544;22.966;2022-12-18T11:48:17;95098.47;;;4.94;100.00
10079;BME280;5078;42.544;22.966;2022-12-18T11:50:48;95109.78;;;5.08;100.00
10079;BME280;5078;42.544;22.966;2022-12-18T11:53:21;95102.50;;;4.87;100.00
10079;BME280;5078;42.544;22.966;2022-12-18T11:56:16;95101.38;;;5.03;100.00
10079;BME280;5078;42.544;22.966;2022-12-18T11:58:56;95103.69;;;5.07;100.00
10079;BME280;5078;42.544;22.966;2022-12-18T12:01:41;95101.72;;;5.22;100.00
10079;BME280;5078;42.544;22.966;2022-12-18T12:04:40;95098.34;;;5.20;100.00
10079;BME280;5078;42.544;22.966;2022-12-18T12:07:21;95100.72;;;5.12;100.00
10079;BME280;5078;42.544;22.966;2022-12-18T12:09:59;95099.84;;;5.11;100.00
10079;BME280;5078;42.544;22.966;2022-12-18T12:12:36;95103.16;;;5.26;100.00
10079;BME280;5078;42.544;22.966;2022-12-18T12:15:27;95108.00;;;5.44;100.00
10079;BME280;5078;42.544;22.966;2022-12-18T12:18:01;95105.00;;;5.37;100.00
10079;BME280;5078;42.544;22.966;2022-12-18T12:20:44;95101.25;;;5.52;100.00
10079;BME280;5078;42.544;22.966;2022-12-18T12:23:21;95111.38;;;5.46;100.00
10079;BME280;5078;42.544;22.966;2022-12-18T12:25:53;95112.09;;;5.48;100.00
10079;BME280;5078;42.544;22.966;2022-12-18T12:28:43;95094.81;;;5.32;100.00
10079;BME280;5078;42.544;22.966;2022-12-18T12:31:21;95103.56;;;5.33;100.00
10079;BME280;5078;42.544;22.966;2022-12-18T12:33:58;95090.13;;;5.25;100.00
10079;BME280;5078;42.544;22.966;2022-12-18T12:36:34;95112.16;;;5.35;100.00
10079;BME280;5078;42.544;22.966;2022-12-18T12:39:06;95113.59;;;5.39;99.14
10079;BME280;5078;42.544;22.966;2022-12-18T12:41:52;95101.72;;;5.22;98.93
10079;BME280;5078;42.544;22.966;2022-12-18T12:44:40;95089.50;;;5.21;100.00
10079;BME280;5078;42.544;22.966;2022-12-18T12:47:16;95110.97;;;5.39;99.93
10079;BME280;5078;42.544;22.966;2022-12-18T12:50:12;95115.41;;;5.38;100.00
10079;BME280;5078;42.544;22.966;2022-12-18T12:52:47;95094.91;;;5.19;100.00
10079;BME280;5078;42.544;22.966;2022-12-18T12:55:30;95101.59;;;5.24;100.00
10079;BME280;5078;42.544;22.966;2022-12-18T12:58:14;95093.84;;;5.22;100.00
10079;BME280;5078;42.544;22.966;2022-12-18T13:01:04;95061.88;;;4.91;100.00
10079;BME280;5078;42.544;22.966;2022-12-18T13:04:12;95095.97;;;5.17;99.36
10079;BME280;5078;42.544;22.966;2022-12-18T13:07:00;95146.63;;;5.43;99.02
10079;BME280;5078;42.544;22.966;2022-12-18T13:09:31;95127.16;;;4.97;98.36
10079;BME280;5078;42.544;22.966;2022-12-18T13:12:02;95138.03;;;5.17;98.46
10079;BME280;5078;42.544;22.966;2022-12-18T13:14:47;95142.28;;;5.07;98.24
10079;BME280;5078;42.544;22.966;2022-12-18T13:17:32;95151.88;;;4.95;98.47
10079;BME280;5078;42.544;22.966;2022-12-18T13:20:09;95146.94;;;4.90;98.70
10079;BME280;5078;42.544;22.966;2022-12-18T13:22:38;95147.06;;;4.76;100.00